KSFO/SFO METAR and TAF weather

Enter ICAO airport designator
Station Type Date Time Source
KSFO METAR 2020/01/29 02:56 UTC NOAA

KSFO 290256Z 29006KT 9SM FEW010 BKN015 BKN027 13/09 A3030 RMK AO2 SLP259 T01280094 53005


Station Type Date Time Source
KSFO Decoded METAR 2020/01/29 02:56 UTC NOAA

SAN FRANCISCO INTERNATIONAL AIRPORT , CA, United States (KSFO) 37-37N 122-22W 26M
Jan 28, 2020 - 09:56 PM EST / 2020.01.29 0256 UTC
Wind: from the WNW (290 degrees) at 7 MPH (6 KT):0
Visibility: 9 mile(s):0
Sky conditions: mostly cloudy
Temperature: 55.0 F (12.8 C)
Dew Point: 48.9 F (9.4 C)
Relative Humidity: 79%
Pressure (altimeter): 30.3 in. Hg (1026 hPa)
Pressure tendency: 0.01 inches (0.5 hPa) higher than three hours ago
ob: KSFO 290256Z 29006KT 9SM FEW010 BKN015 BKN027 13/09 A3030 RMK AO2 SLP259 T01280094 53005
cycle: 3

Station Type Date Time Source
KSFO TAF 2020/01/29 03:12 UTC NOAA

TAF
AMD KSFO 290304Z 2903/3006 28009KT P6SM FEW010 BKN020 OVC250
FM290800 25005KT P6SM OVC020
FM291400 29004KT P6SM OVC012
FM292000 31010KT P6SM SCT050
FM300400 29008KT P6SM SCT030

Example: see airport list